sensor_id;sensor_type;location;lat;lon;timestamp;P1;durP1;ratioP1;P2;durP2;ratioP2
20721;SDS011;10522;52.198;9.890;2023-05-19T00:00:41;8.97;;;3.93;;
20721;SDS011;10522;52.198;9.890;2023-05-19T00:03:09;6.97;;;3.00;;
20721;SDS011;10522;52.198;9.890;2023-05-19T00:05:36;8.47;;;3.20;;
20721;SDS011;10522;52.198;9.890;2023-05-19T00:08:10;7.47;;;3.20;;
20721;SDS011;10522;52.198;9.890;2023-05-19T00:10:37;6.83;;;3.03;;
20721;SDS011;10522;52.198;9.890;2023-05-19T00:13:03;9.90;;;3.57;;
20721;SDS011;10522;52.198;9.890;2023-05-19T00:15:29;8.40;;;3.77;;
20721;SDS011;10522;52.198;9.890;2023-05-19T00:17:55;5.53;;;3.17;;
20721;SDS011;10522;52.198;9.890;2023-05-19T00:20:21;14.73;;;3.57;;
20721;SDS011;10522;52.198;9.890;2023-05-19T00:22:46;12.83;;;3.40;;
20721;SDS011;10522;52.198;9.890;2023-05-19T00:25:12;17.07;;;4.37;;
20721;SDS011;10522;52.198;9.890;2023-05-19T00:27:38;7.07;;;3.07;;
20721;SDS011;10522;52.198;9.890;2023-05-19T00:30:03;8.07;;;2.73;;
20721;SDS011;10522;52.198;9.890;2023-05-19T00:32:29;8.33;;;3.40;;
20721;SDS011;10522;52.198;9.890;2023-05-19T00:34:55;6.33;;;2.70;;
20721;SDS011;10522;52.198;9.890;2023-05-19T00:37:20;7.70;;;2.80;;
20721;SDS011;10522;52.198;9.890;2023-05-19T00:39:47;5.87;;;3.03;;
20721;SDS011;10522;52.198;9.890;2023-05-19T00:42:12;7.07;;;3.00;;
20721;SDS011;10522;52.198;9.890;2023-05-19T00:44:39;5.30;;;2.43;;
20721;SDS011;10522;52.198;9.890;2023-05-19T00:47:05;9.27;;;3.57;;
20721;SDS011;10522;52.198;9.890;2023-05-19T00:49:31;4.90;;;2.73;;
20721;SDS011;10522;52.198;9.890;2023-05-19T00:51:58;7.80;;;3.00;;
20721;SDS011;10522;52.198;9.890;2023-05-19T00:54:25;10.50;;;3.43;;
20721;SDS011;10522;52.198;9.890;2023-05-19T00:56:51;7.80;;;3.03;;
20721;SDS011;10522;52.198;9.890;2023-05-19T00:59:19;10.23;;;3.07;;
20721;SDS011;10522;52.198;9.890;2023-05-19T01:01:45;7.00;;;3.40;;
20721;SDS011;10522;52.198;9.890;2023-05-19T01:04:14;8.27;;;3.20;;
20721;SDS011;10522;52.198;9.890;2023-05-19T01:06:42;7.53;;;3.03;;
20721;SDS011;10522;52.198;9.890;2023-05-19T01:09:08;5.67;;;3.50;;
20721;SDS011;10522;52.198;9.890;2023-05-19T01:11:33;8.47;;;3.67;;
20721;SDS011;10522;52.198;9.890;2023-05-19T01:13:59;15.03;;;3.83;;
20721;SDS011;10522;52.198;9.890;2023-05-19T01:16:30;11.70;;;3.50;;
20721;SDS011;10522;52.198;9.890;2023-05-19T01:24:23;4.47;;;3.10;;
20721;SDS011;10522;52.198;9.890;2023-05-19T01:32:50;6.70;;;2.93;;
20721;SDS011;10522;52.198;9.890;2023-05-19T01:35:18;9.27;;;3.17;;
20721;SDS011;10522;52.198;9.890;2023-05-19T01:37:46;6.47;;;2.93;;
20721;SDS011;10522;52.198;9.890;2023-05-19T01:40:14;9.57;;;3.23;;
20721;SDS011;10522;52.198;9.890;2023-05-19T01:42:40;11.63;;;3.37;;
20721;SDS011;10522;52.198;9.890;2023-05-19T01:45:06;7.63;;;2.90;;
20721;SDS011;10522;52.198;9.890;2023-05-19T01:47:36;8.30;;;3.10;;
20721;SDS011;10522;52.198;9.890;2023-05-19T01:50:07;7.03;;;3.33;;
20721;SDS011;10522;52.198;9.890;2023-05-19T01:52:33;7.90;;;3.70;;
20721;SDS011;10522;52.198;9.890;2023-05-19T01:54:59;8.10;;;4.00;;
20721;SDS011;10522;52.198;9.890;2023-05-19T02:08:40;8.07;;;3.40;;
20721;SDS011;10522;52.198;9.890;2023-05-19T02:11:30;10.33;;;4.33;;
20721;SDS011;10522;52.198;9.890;2023-05-19T02:14:17;8.60;;;4.00;;
20721;SDS011;10522;52.198;9.890;2023-05-19T02:16:46;9.03;;;3.20;;
20721;SDS011;10522;52.198;9.890;2023-05-19T02:19:22;8.13;;;4.03;;
20721;SDS011;10522;52.198;9.890;2023-05-19T02:21:49;10.60;;;4.40;;
20721;SDS011;10522;52.198;9.890;2023-05-19T02:24:16;6.57;;;3.87;;
20721;SDS011;10522;52.198;9.890;2023-05-19T02:26:41;6.17;;;3.90;;
20721;SDS011;10522;52.198;9.890;2023-05-19T02:29:07;8.93;;;3.83;;
20721;SDS011;10522;52.198;9.890;2023-05-19T02:31:33;9.97;;;3.93;;
20721;SDS011;10522;52.198;9.890;2023-05-19T02:33:58;8.50;;;3.57;;
20721;SDS011;10522;52.198;9.890;2023-05-19T02:36:24;7.33;;;4.27;;
20721;SDS011;10522;52.198;9.890;2023-05-19T02:38:50;10.83;;;4.40;;
20721;SDS011;10522;52.198;9.890;2023-05-19T02:41:16;9.77;;;4.30;;
20721;SDS011;10522;52.198;9.890;2023-05-19T02:43:41;9.60;;;4.13;;
20721;SDS011;10522;52.198;9.890;2023-05-19T02:46:07;11.40;;;4.10;;
20721;SDS011;10522;52.198;9.890;2023-05-19T02:48:32;5.80;;;3.53;;
20721;SDS011;10522;52.198;9.890;2023-05-19T02:50:58;7.57;;;3.50;;
20721;SDS011;10522;52.198;9.890;2023-05-19T02:53:24;11.17;;;3.97;;
20721;SDS011;10522;52.198;9.890;2023-05-19T02:55:50;10.60;;;4.40;;
20721;SDS011;10522;52.198;9.890;2023-05-19T02:58:16;7.60;;;4.40;;
20721;SDS011;10522;52.198;9.890;2023-05-19T03:00:42;8.67;;;4.37;;
20721;SDS011;10522;52.198;9.890;2023-05-19T03:03:09;7.00;;;3.67;;
20721;SDS011;10522;52.198;9.890;2023-05-19T03:05:34;6.87;;;3.80;;
20721;SDS011;10522;52.198;9.890;2023-05-19T03:08:00;8.63;;;3.60;;
20721;SDS011;10522;52.198;9.890;2023-05-19T03:10:26;10.10;;;4.20;;
20721;SDS011;10522;52.198;9.890;2023-05-19T03:12:52;8.80;;;4.17;;
20721;SDS011;10522;52.198;9.890;2023-05-19T03:15:17;9.63;;;4.17;;
20721;SDS011;10522;52.198;9.890;2023-05-19T03:17:43;8.00;;;3.87;;
20721;SDS011;10522;52.198;9.890;2023-05-19T03:20:09;7.63;;;3.93;;
20721;SDS011;10522;52.198;9.890;2023-05-19T03:22:34;6.03;;;3.53;;
20721;SDS011;10522;52.198;9.890;2023-05-19T03:25:00;6.07;;;3.47;;
20721;SDS011;10522;52.198;9.890;2023-05-19T03:27:27;9.90;;;4.13;;
20721;SDS011;10522;52.198;9.890;2023-05-19T03:29:53;12.10;;;4.20;;
20721;SDS011;10522;52.198;9.890;2023-05-19T03:32:18;6.67;;;3.47;;
20721;SDS011;10522;52.198;9.890;2023-05-19T03:34:44;6.83;;;4.00;;
20721;SDS011;10522;52.198;9.890;2023-05-19T03:37:10;7.40;;;3.77;;
20721;SDS011;10522;52.198;9.890;2023-05-19T03:39:36;7.37;;;3.63;;
20721;SDS011;10522;52.198;9.890;2023-05-19T03:42:02;7.37;;;3.70;;
20721;SDS011;10522;52.198;9.890;2023-05-19T03:44:28;7.43;;;4.27;;
20721;SDS011;10522;52.198;9.890;2023-05-19T03:46:53;7.90;;;4.00;;
20721;SDS011;10522;52.198;9.890;2023-05-19T03:49:19;12.37;;;4.30;;
20721;SDS011;10522;52.198;9.890;2023-05-19T03:51:44;7.47;;;4.23;;
20721;SDS011;10522;52.198;9.890;2023-05-19T03:54:10;8.53;;;3.70;;
20721;SDS011;10522;52.198;9.890;2023-05-19T03:56:37;7.57;;;4.07;;
20721;SDS011;10522;52.198;9.890;2023-05-19T03:59:03;8.53;;;3.83;;
20721;SDS011;10522;52.198;9.890;2023-05-19T04:01:32;8.43;;;4.10;;
20721;SDS011;10522;52.198;9.890;2023-05-19T04:03:58;13.23;;;4.03;;
20721;SDS011;10522;52.198;9.890;2023-05-19T04:06:23;7.17;;;3.93;;
20721;SDS011;10522;52.198;9.890;2023-05-19T04:08:49;9.37;;;4.10;;
20721;SDS011;10522;52.198;9.890;2023-05-19T04:11:15;7.40;;;4.43;;
20721;SDS011;10522;52.198;9.890;2023-05-19T04:13:40;9.27;;;3.70;;
20721;SDS011;10522;52.198;9.890;2023-05-19T04:16:06;11.37;;;4.40;;
20721;SDS011;10522;52.198;9.890;2023-05-19T04:18:32;9.37;;;4.30;;
20721;SDS011;10522;52.198;9.890;2023-05-19T04:20:57;8.47;;;4.07;;
20721;SDS011;10522;52.198;9.890;2023-05-19T04:23:23;7.17;;;4.13;;
20721;SDS011;10522;52.198;9.890;2023-05-19T04:25:48;9.33;;;4.37;;
20721;SDS011;10522;52.198;9.890;2023-05-19T04:28:14;9.43;;;5.10;;
20721;SDS011;10522;52.198;9.890;2023-05-19T04:30:40;8.57;;;3.80;;
20721;SDS011;10522;52.198;9.890;2023-05-19T04:33:06;11.07;;;4.40;;
20721;SDS011;10522;52.198;9.890;2023-05-19T04:35:33;10.83;;;3.87;;
20721;SDS011;10522;52.198;9.890;2023-05-19T04:37:58;13.83;;;5.13;;
20721;SDS011;10522;52.198;9.890;2023-05-19T04:40:25;13.10;;;4.93;;
20721;SDS011;10522;52.198;9.890;2023-05-19T04:42:51;9.83;;;4.80;;
20721;SDS011;10522;52.198;9.890;2023-05-19T04:45:17;6.63;;;3.93;;
20721;SDS011;10522;52.198;9.890;2023-05-19T04:47:43;9.07;;;4.67;;
20721;SDS011;10522;52.198;9.890;2023-05-19T04:50:10;7.73;;;4.47;;
20721;SDS011;10522;52.198;9.890;2023-05-19T04:52:36;11.87;;;4.13;;
20721;SDS011;10522;52.198;9.890;2023-05-19T04:55:02;17.93;;;4.87;;
20721;SDS011;10522;52.198;9.890;2023-05-19T04:57:28;8.30;;;4.13;;
20721;SDS011;10522;52.198;9.890;2023-05-19T04:59:53;7.97;;;3.83;;
20721;SDS011;10522;52.198;9.890;2023-05-19T05:02:24;13.07;;;4.80;;
20721;SDS011;10522;52.198;9.890;2023-05-19T05:04:51;9.80;;;4.67;;
20721;SDS011;10522;52.198;9.890;2023-05-19T05:07:18;8.90;;;4.27;;
20721;SDS011;10522;52.198;9.890;2023-05-19T05:09:45;7.63;;;4.50;;
20721;SDS011;10522;52.198;9.890;2023-05-19T05:12:12;11.53;;;4.43;;
20721;SDS011;10522;52.198;9.890;2023-05-19T05:14:39;11.47;;;4.43;;
20721;SDS011;10522;52.198;9.890;2023-05-19T05:17:05;9.13;;;3.60;;
20721;SDS011;10522;52.198;9.890;2023-05-19T05:19:32;8.97;;;4.37;;
20721;SDS011;10522;52.198;9.890;2023-05-19T05:21:58;8.50;;;3.93;;
20721;SDS011;10522;52.198;9.890;2023-05-19T05:24:24;14.43;;;5.50;;
20721;SDS011;10522;52.198;9.890;2023-05-19T05:26:50;8.03;;;4.57;;
20721;SDS011;10522;52.198;9.890;2023-05-19T05:29:16;11.80;;;4.70;;
20721;SDS011;10522;52.198;9.890;2023-05-19T05:31:41;12.20;;;5.30;;
20721;SDS011;10522;52.198;9.890;2023-05-19T05:34:07;6.70;;;4.73;;
20721;SDS011;10522;52.198;9.890;2023-05-19T05:36:33;8.20;;;4.50;;
20721;SDS011;10522;52.198;9.890;2023-05-19T05:38:59;13.23;;;4.37;;
20721;SDS011;10522;52.198;9.890;2023-05-19T05:41:26;10.47;;;5.10;;
20721;SDS011;10522;52.198;9.890;2023-05-19T05:43:53;13.33;;;5.47;;
20721;SDS011;10522;52.198;9.890;2023-05-19T05:46:19;8.27;;;4.43;;
20721;SDS011;10522;52.198;9.890;2023-05-19T05:48:44;10.23;;;4.70;;
20721;SDS011;10522;52.198;9.890;2023-05-19T05:51:11;10.57;;;4.53;;
20721;SDS011;10522;52.198;9.890;2023-05-19T05:53:39;11.73;;;4.60;;
20721;SDS011;10522;52.198;9.890;2023-05-19T05:56:07;8.07;;;4.43;;
20721;SDS011;10522;52.198;9.890;2023-05-19T05:58:34;7.63;;;3.90;;
20721;SDS011;10522;52.198;9.890;2023-05-19T06:01:01;8.77;;;3.87;;
20721;SDS011;10522;52.198;9.890;2023-05-19T06:03:28;11.80;;;4.77;;
20721;SDS011;10522;52.198;9.890;2023-05-19T06:05:55;8.60;;;4.20;;
20721;SDS011;10522;52.198;9.890;2023-05-19T06:08:21;11.90;;;4.70;;
20721;SDS011;10522;52.198;9.890;2023-05-19T06:10:47;12.73;;;4.20;;
20721;SDS011;10522;52.198;9.890;2023-05-19T06:13:13;10.30;;;4.53;;
20721;SDS011;10522;52.198;9.890;2023-05-19T06:15:41;8.33;;;4.30;;
20721;SDS011;10522;52.198;9.890;2023-05-19T06:18:07;9.60;;;3.93;;
20721;SDS011;10522;52.198;9.890;2023-05-19T06:20:32;10.97;;;4.23;;
20721;SDS011;10522;52.198;9.890;2023-05-19T06:22:58;14.03;;;5.10;;
20721;SDS011;10522;52.198;9.890;2023-05-19T06:25:24;10.13;;;4.83;;
20721;SDS011;10522;52.198;9.890;2023-05-19T06:27:50;10.63;;;4.10;;
20721;SDS011;10522;52.198;9.890;2023-05-19T06:30:16;11.93;;;4.93;;
20721;SDS011;10522;52.198;9.890;2023-05-19T06:32:41;15.00;;;5.43;;
20721;SDS011;10522;52.198;9.890;2023-05-19T06:35:07;13.23;;;5.40;;
20721;SDS011;10522;52.198;9.890;2023-05-19T06:37:33;11.53;;;4.47;;
20721;SDS011;10522;52.198;9.890;2023-05-19T06:39:58;10.30;;;4.00;;
20721;SDS011;10522;52.198;9.890;2023-05-19T06:42:24;9.97;;;4.00;;
20721;SDS011;10522;52.198;9.890;2023-05-19T06:44:50;13.43;;;4.43;;
20721;SDS011;10522;52.198;9.890;2023-05-19T06:47:17;6.03;;;3.90;;
20721;SDS011;10522;52.198;9.890;2023-05-19T06:49:43;9.63;;;3.93;;
20721;SDS011;10522;52.198;9.890;2023-05-19T06:52:09;7.07;;;3.50;;
20721;SDS011;10522;52.198;9.890;2023-05-19T06:54:35;9.57;;;3.70;;
20721;SDS011;10522;52.198;9.890;2023-05-19T06:57:01;10.93;;;3.53;;
20721;SDS011;10522;52.198;9.890;2023-05-19T06:59:26;20.23;;;11.47;;
20721;SDS011;10522;52.198;9.890;2023-05-19T07:01:52;12.67;;;4.50;;
20721;SDS011;10522;52.198;9.890;2023-05-19T07:04:18;11.80;;;4.33;;
20721;SDS011;10522;52.198;9.890;2023-05-19T07:06:43;9.53;;;3.83;;
20721;SDS011;10522;52.198;9.890;2023-05-19T07:09:09;7.93;;;4.00;;
20721;SDS011;10522;52.198;9.890;2023-05-19T07:11:34;18.60;;;4.90;;
20721;SDS011;10522;52.198;9.890;2023-05-19T07:14:00;5.67;;;3.70;;
20721;SDS011;10522;52.198;9.890;2023-05-19T07:16:25;11.77;;;4.57;;
20721;SDS011;10522;52.198;9.890;2023-05-19T07:18:51;12.27;;;4.03;;
20721;SDS011;10522;52.198;9.890;2023-05-19T07:21:17;9.53;;;3.93;;
20721;SDS011;10522;52.198;9.890;2023-05-19T07:23:42;8.23;;;3.70;;
20721;SDS011;10522;52.198;9.890;2023-05-19T07:26:08;11.47;;;4.63;;
20721;SDS011;10522;52.198;9.890;2023-05-19T07:28:33;18.53;;;5.33;;
20721;SDS011;10522;52.198;9.890;2023-05-19T07:30:59;9.37;;;4.17;;
20721;SDS011;10522;52.198;9.890;2023-05-19T07:33:25;14.20;;;4.93;;
20721;SDS011;10522;52.198;9.890;2023-05-19T07:35:51;18.07;;;6.13;;
20721;SDS011;10522;52.198;9.890;2023-05-19T07:38:17;10.30;;;4.07;;
20721;SDS011;10522;52.198;9.890;2023-05-19T07:40:43;10.97;;;4.73;;
20721;SDS011;10522;52.198;9.890;2023-05-19T07:43:09;13.37;;;4.47;;
20721;SDS011;10522;52.198;9.890;2023-05-19T07:45:35;9.87;;;3.60;;
20721;SDS011;10522;52.198;9.890;2023-05-19T07:48:01;8.33;;;3.60;;
20721;SDS011;10522;52.198;9.890;2023-05-19T07:50:27;10.70;;;4.03;;
20721;SDS011;10522;52.198;9.890;2023-05-19T07:52:53;9.93;;;4.17;;
20721;SDS011;10522;52.198;9.890;2023-05-19T07:55:19;8.10;;;3.27;;
20721;SDS011;10522;52.198;9.890;2023-05-19T07:57:47;10.77;;;4.27;;
20721;SDS011;10522;52.198;9.890;2023-05-19T08:00:13;12.90;;;4.33;;
20721;SDS011;10522;52.198;9.890;2023-05-19T08:02:39;10.90;;;4.80;;
20721;SDS011;10522;52.198;9.890;2023-05-19T08:05:05;13.73;;;4.83;;
20721;SDS011;10522;52.198;9.890;2023-05-19T08:07:33;10.70;;;4.57;;
20721;SDS011;10522;52.198;9.890;2023-05-19T08:09:58;11.10;;;5.00;;
20721;SDS011;10522;52.198;9.890;2023-05-19T08:12:24;10.97;;;4.73;;
20721;SDS011;10522;52.198;9.890;2023-05-19T08:14:50;13.37;;;4.30;;
20721;SDS011;10522;52.198;9.890;2023-05-19T08:17:16;10.60;;;4.07;;
20721;SDS011;10522;52.198;9.890;2023-05-19T08:19:42;11.70;;;4.17;;
20721;SDS011;10522;52.198;9.890;2023-05-19T08:22:07;10.87;;;4.73;;
20721;SDS011;10522;52.198;9.890;2023-05-19T08:24:33;12.43;;;4.00;;
20721;SDS011;10522;52.198;9.890;2023-05-19T08:26:59;10.73;;;3.60;;
20721;SDS011;10522;52.198;9.890;2023-05-19T08:29:25;12.63;;;4.03;;
20721;SDS011;10522;52.198;9.890;2023-05-19T08:31:50;10.13;;;3.73;;
20721;SDS011;10522;52.198;9.890;2023-05-19T08:34:17;9.73;;;4.00;;
20721;SDS011;10522;52.198;9.890;2023-05-19T08:36:43;8.47;;;3.97;;
20721;SDS011;10522;52.198;9.890;2023-05-19T08:39:09;10.73;;;4.10;;
20721;SDS011;10522;52.198;9.890;2023-05-19T08:41:35;12.03;;;4.03;;
20721;SDS011;10522;52.198;9.890;2023-05-19T08:44:01;10.67;;;4.10;;
20721;SDS011;10522;52.198;9.890;2023-05-19T08:46:28;8.43;;;4.13;;
20721;SDS011;10522;52.198;9.890;2023-05-19T08:48:57;10.07;;;4.30;;
20721;SDS011;10522;52.198;9.890;2023-05-19T08:54:13;9.47;;;4.10;;
20721;SDS011;10522;52.198;9.890;2023-05-19T08:56:43;10.43;;;3.77;;
20721;SDS011;10522;52.198;9.890;2023-05-19T08:59:11;10.77;;;4.10;;
20721;SDS011;10522;52.198;9.890;2023-05-19T09:01:38;10.90;;;3.97;;
20721;SDS011;10522;52.198;9.890;2023-05-19T09:04:06;10.30;;;3.60;;
20721;SDS011;10522;52.198;9.890;2023-05-19T09:06:33;10.93;;;3.90;;
20721;SDS011;10522;52.198;9.890;2023-05-19T09:08:59;7.47;;;3.70;;
20721;SDS011;10522;52.198;9.890;2023-05-19T09:11:24;10.17;;;3.80;;
20721;SDS011;10522;52.198;9.890;2023-05-19T09:13:50;6.63;;;3.77;;
20721;SDS011;10522;52.198;9.890;2023-05-19T09:16:16;11.73;;;4.67;;
20721;SDS011;10522;52.198;9.890;2023-05-19T09:18:54;10.57;;;3.73;;
20721;SDS011;10522;52.198;9.890;2023-05-19T09:21:30;7.17;;;3.83;;
20721;SDS011;10522;52.198;9.890;2023-05-19T09:24:03;10.27;;;3.73;;
20721;SDS011;10522;52.198;9.890;2023-05-19T09:26:39;7.17;;;3.73;;
20721;SDS011;10522;52.198;9.890;2023-05-19T09:29:09;8.33;;;3.63;;
20721;SDS011;10522;52.198;9.890;2023-05-19T09:34:18;9.17;;;3.50;;
20721;SDS011;10522;52.198;9.890;2023-05-19T09:36:45;18.73;;;3.50;;
20721;SDS011;10522;52.198;9.890;2023-05-19T09:39:13;8.50;;;3.60;;
20721;SDS011;10522;52.198;9.890;2023-05-19T09:41:40;9.40;;;3.33;;
20721;SDS011;10522;52.198;9.890;2023-05-19T09:44:06;10.40;;;4.13;;
20721;SDS011;10522;52.198;9.890;2023-05-19T09:46:32;10.43;;;3.67;;
20721;SDS011;10522;52.198;9.890;2023-05-19T09:49:02;10.60;;;3.70;;
20721;SDS011;10522;52.198;9.890;2023-05-19T09:51:34;8.67;;;3.80;;
20721;SDS011;10522;52.198;9.890;2023-05-19T09:54:01;8.67;;;3.60;;
20721;SDS011;10522;52.198;9.890;2023-05-19T09:56:30;13.10;;;3.30;;
20721;SDS011;10522;52.198;9.890;2023-05-19T09:58:58;8.67;;;3.13;;
20721;SDS011;10522;52.198;9.890;2023-05-19T10:01:24;8.20;;;3.37;;
20721;SDS011;10522;52.198;9.890;2023-05-19T10:03:51;7.97;;;3.57;;
20721;SDS011;10522;52.198;9.890;2023-05-19T10:06:17;4.27;;;2.93;;
20721;SDS011;10522;52.198;9.890;2023-05-19T10:08:44;8.37;;;3.40;;
20721;SDS011;10522;52.198;9.890;2023-05-19T10:11:12;6.33;;;3.27;;
20721;SDS011;10522;52.198;9.890;2023-05-19T10:13:38;7.63;;;3.30;;
20721;SDS011;10522;52.198;9.890;2023-05-19T10:16:05;7.50;;;3.73;;
20721;SDS011;10522;52.198;9.890;2023-05-19T10:18:32;10.67;;;3.10;;
20721;SDS011;10522;52.198;9.890;2023-05-19T10:20:58;5.30;;;2.93;;
20721;SDS011;10522;52.198;9.890;2023-05-19T10:23:25;6.93;;;3.03;;
20721;SDS011;10522;52.198;9.890;2023-05-19T10:25:51;6.47;;;2.53;;
20721;SDS011;10522;52.198;9.890;2023-05-19T10:28:20;8.27;;;2.63;;
20721;SDS011;10522;52.198;9.890;2023-05-19T10:30:51;4.67;;;2.60;;
20721;SDS011;10522;52.198;9.890;2023-05-19T10:33:20;4.60;;;2.53;;
20721;SDS011;10522;52.198;9.890;2023-05-19T10:38:45;7.90;;;2.57;;
20721;SDS011;10522;52.198;9.890;2023-05-19T10:46:44;5.80;;;2.47;;
20721;SDS011;10522;52.198;9.890;2023-05-19T10:49:09;5.20;;;2.37;;
20721;SDS011;10522;52.198;9.890;2023-05-19T10:51:46;7.07;;;2.70;;
20721;SDS011;10522;52.198;9.890;2023-05-19T10:54:12;5.43;;;2.30;;
20721;SDS011;10522;52.198;9.890;2023-05-19T10:56:41;5.23;;;2.33;;
20721;SDS011;10522;52.198;9.890;2023-05-19T10:59:29;4.90;;;2.30;;
20721;SDS011;10522;52.198;9.890;2023-05-19T11:01:57;4.23;;;2.23;;
20721;SDS011;10522;52.198;9.890;2023-05-19T11:04:46;2.97;;;1.90;;
20721;SDS011;10522;52.198;9.890;2023-05-19T11:09:53;8.30;;;1.80;;
20721;SDS011;10522;52.198;9.890;2023-05-19T11:12:19;7.37;;;2.43;;
20721;SDS011;10522;52.198;9.890;2023-05-19T11:14:53;3.57;;;1.90;;
20721;SDS011;10522;52.198;9.890;2023-05-19T11:17:19;2.40;;;1.70;;
20721;SDS011;10522;52.198;9.890;2023-05-19T11:19:51;4.70;;;1.90;;
20721;SDS011;10522;52.198;9.890;2023-05-19T11:22:22;5.77;;;2.07;;
20721;SDS011;10522;52.198;9.890;2023-05-19T11:24:49;6.43;;;1.87;;
20721;SDS011;10522;52.198;9.890;2023-05-19T11:30:07;3.00;;;1.67;;
20721;SDS011;10522;52.198;9.890;2023-05-19T11:32:39;3.07;;;1.60;;
20721;SDS011;10522;52.198;9.890;2023-05-19T11:35:07;3.50;;;1.70;;
20721;SDS011;10522;52.198;9.890;2023-05-19T11:37:34;6.83;;;1.77;;
20721;SDS011;10522;52.198;9.890;2023-05-19T11:40:01;3.63;;;2.23;;
20721;SDS011;10522;52.198;9.890;2023-05-19T11:42:33;4.13;;;2.23;;
20721;SDS011;10522;52.198;9.890;2023-05-19T11:45:00;5.60;;;2.10;;
20721;SDS011;10522;52.198;9.890;2023-05-19T11:47:26;2.60;;;1.60;;
20721;SDS011;10522;52.198;9.890;2023-05-19T11:49:53;3.33;;;1.83;;
20721;SDS011;10522;52.198;9.890;2023-05-19T11:52:23;2.60;;;1.70;;
20721;SDS011;10522;52.198;9.890;2023-05-19T11:54:50;3.77;;;1.60;;
20721;SDS011;10522;52.198;9.890;2023-05-19T11:57:16;3.63;;;2.00;;
20721;SDS011;10522;52.198;9.890;2023-05-19T11:59:42;4.00;;;1.57;;
20721;SDS011;10522;52.198;9.890;2023-05-19T12:02:24;2.87;;;1.67;;
20721;SDS011;10522;52.198;9.890;2023-05-19T12:04:51;6.03;;;1.57;;
20721;SDS011;10522;52.198;9.890;2023-05-19T12:07:19;4.70;;;2.03;;
20721;SDS011;10522;52.198;9.890;2023-05-19T12:09:48;7.00;;;1.87;;
20721;SDS011;10522;52.198;9.890;2023-05-19T12:12:16;3.57;;;1.53;;
20721;SDS011;10522;52.198;9.890;2023-05-19T12:14:43;4.50;;;1.93;;
20721;SDS011;10522;52.198;9.890;2023-05-19T12:17:15;4.67;;;1.70;;
20721;SDS011;10522;52.198;9.890;2023-05-19T12:19:42;5.67;;;1.60;;
20721;SDS011;10522;52.198;9.890;2023-05-19T12:22:08;6.20;;;1.67;;
20721;SDS011;10522;52.198;9.890;2023-05-19T12:24:35;4.50;;;1.73;;
20721;SDS011;10522;52.198;9.890;2023-05-19T12:27:05;4.80;;;2.10;;
20721;SDS011;10522;52.198;9.890;2023-05-19T12:29:54;1.90;;;1.30;;
20721;SDS011;10522;52.198;9.890;2023-05-19T12:32:24;3.83;;;1.80;;
20721;SDS011;10522;52.198;9.890;2023-05-19T12:34:50;4.27;;;1.53;;
20721;SDS011;10522;52.198;9.890;2023-05-19T12:37:17;3.03;;;1.40;;
20721;SDS011;10522;52.198;9.890;2023-05-19T12:39:43;4.33;;;1.60;;
20721;SDS011;10522;52.198;9.890;2023-05-19T12:42:09;3.87;;;1.47;;
20721;SDS011;10522;52.198;9.890;2023-05-19T12:44:47;2.17;;;1.80;;
20721;SDS011;10522;52.198;9.890;2023-05-19T12:47:15;4.87;;;1.93;;
20721;SDS011;10522;52.198;9.890;2023-05-19T12:52:27;2.87;;;1.10;;
20721;SDS011;10522;52.198;9.890;2023-05-19T12:57:30;2.77;;;1.53;;
20721;SDS011;10522;52.198;9.890;2023-05-19T13:00:03;2.60;;;1.30;;
20721;SDS011;10522;52.198;9.890;2023-05-19T13:03:04;4.37;;;1.70;;
20721;SDS011;10522;52.198;9.890;2023-05-19T13:05:31;2.33;;;1.10;;
20721;SDS011;10522;52.198;9.890;2023-05-19T13:08:08;3.50;;;1.47;;
20721;SDS011;10522;52.198;9.890;2023-05-19T13:10:35;4.07;;;1.20;;
20721;SDS011;10522;52.198;9.890;2023-05-19T13:13:02;4.20;;;1.33;;
20721;SDS011;10522;52.198;9.890;2023-05-19T13:15:29;2.57;;;1.40;;
20721;SDS011;10522;52.198;9.890;2023-05-19T13:17:58;3.90;;;1.27;;
20721;SDS011;10522;52.198;9.890;2023-05-19T13:20:25;4.83;;;1.40;;
20721;SDS011;10522;52.198;9.890;2023-05-19T13:22:51;3.37;;;1.10;;
20721;SDS011;10522;52.198;9.890;2023-05-19T13:25:17;1.40;;;1.30;;
20721;SDS011;10522;52.198;9.890;2023-05-19T13:27:43;2.53;;;1.70;;
20721;SDS011;10522;52.198;9.890;2023-05-19T13:30:10;1.63;;;1.20;;
20721;SDS011;10522;52.198;9.890;2023-05-19T13:32:42;2.13;;;1.60;;
20721;SDS011;10522;52.198;9.890;2023-05-19T13:35:08;5.23;;;1.50;;
20721;SDS011;10522;52.198;9.890;2023-05-19T13:37:34;4.27;;;1.50;;
20721;SDS011;10522;52.198;9.890;2023-05-19T13:40:00;2.80;;;1.40;;
20721;SDS011;10522;52.198;9.890;2023-05-19T13:42:26;3.07;;;1.30;;
20721;SDS011;10522;52.198;9.890;2023-05-19T13:44:55;5.10;;;1.30;;
20721;SDS011;10522;52.198;9.890;2023-05-19T13:47:21;5.10;;;1.20;;
20721;SDS011;10522;52.198;9.890;2023-05-19T13:49:47;4.17;;;1.23;;
20721;SDS011;10522;52.198;9.890;2023-05-19T13:52:13;2.93;;;1.30;;
20721;SDS011;10522;52.198;9.890;2023-05-19T13:54:39;3.43;;;1.33;;
20721;SDS011;10522;52.198;9.890;2023-05-19T13:57:04;3.03;;;1.50;;
20721;SDS011;10522;52.198;9.890;2023-05-19T13:59:30;2.23;;;1.27;;
20721;SDS011;10522;52.198;9.890;2023-05-19T14:01:56;1.90;;;1.40;;
20721;SDS011;10522;52.198;9.890;2023-05-19T14:04:22;5.90;;;1.77;;
20721;SDS011;10522;52.198;9.890;2023-05-19T14:06:48;8.37;;;1.80;;
20721;SDS011;10522;52.198;9.890;2023-05-19T14:09:14;4.00;;;1.37;;
20721;SDS011;10522;52.198;9.890;2023-05-19T14:11:40;3.20;;;1.40;;
20721;SDS011;10522;52.198;9.890;2023-05-19T14:14:06;2.47;;;1.53;;
20721;SDS011;10522;52.198;9.890;2023-05-19T14:16:32;2.77;;;1.47;;
20721;SDS011;10522;52.198;9.890;2023-05-19T14:18:57;3.43;;;1.50;;
20721;SDS011;10522;52.198;9.890;2023-05-19T14:21:23;2.83;;;1.40;;
20721;SDS011;10522;52.198;9.890;2023-05-19T14:23:49;5.63;;;1.97;;
20721;SDS011;10522;52.198;9.890;2023-05-19T14:26:14;3.87;;;1.73;;
20721;SDS011;10522;52.198;9.890;2023-05-19T14:28:40;3.63;;;1.60;;
20721;SDS011;10522;52.198;9.890;2023-05-19T14:31:12;2.07;;;1.33;;
20721;SDS011;10522;52.198;9.890;2023-05-19T14:33:38;4.23;;;1.60;;
20721;SDS011;10522;52.198;9.890;2023-05-19T14:36:06;5.63;;;1.77;;
20721;SDS011;10522;52.198;9.890;2023-05-19T14:38:33;2.33;;;1.47;;
20721;SDS011;10522;52.198;9.890;2023-05-19T14:40:59;5.97;;;1.60;;
20721;SDS011;10522;52.198;9.890;2023-05-19T14:43:24;2.10;;;1.37;;
20721;SDS011;10522;52.198;9.890;2023-05-19T14:45:50;3.73;;;1.30;;
20721;SDS011;10522;52.198;9.890;2023-05-19T14:48:16;1.57;;;1.30;;
20721;SDS011;10522;52.198;9.890;2023-05-19T14:50:41;2.83;;;1.73;;
20721;SDS011;10522;52.198;9.890;2023-05-19T14:53:07;2.83;;;1.47;;
20721;SDS011;10522;52.198;9.890;2023-05-19T14:55:33;3.47;;;1.63;;
20721;SDS011;10522;52.198;9.890;2023-05-19T14:57:59;4.53;;;1.60;;
20721;SDS011;10522;52.198;9.890;2023-05-19T15:00:25;3.77;;;1.93;;
20721;SDS011;10522;52.198;9.890;2023-05-19T15:02:51;6.13;;;2.00;;
20721;SDS011;10522;52.198;9.890;2023-05-19T15:05:17;4.13;;;1.23;;
20721;SDS011;10522;52.198;9.890;2023-05-19T15:07:46;4.03;;;1.60;;
20721;SDS011;10522;52.198;9.890;2023-05-19T15:10:14;5.27;;;1.80;;
20721;SDS011;10522;52.198;9.890;2023-05-19T15:12:43;3.10;;;1.70;;
20721;SDS011;10522;52.198;9.890;2023-05-19T15:15:09;4.97;;;1.47;;
20721;SDS011;10522;52.198;9.890;2023-05-19T15:17:35;5.53;;;1.80;;
20721;SDS011;10522;52.198;9.890;2023-05-19T15:20:01;2.93;;;1.40;;
20721;SDS011;10522;52.198;9.890;2023-05-19T15:22:26;13.23;;;1.63;;
20721;SDS011;10522;52.198;9.890;2023-05-19T15:24:52;5.33;;;1.60;;
20721;SDS011;10522;52.198;9.890;2023-05-19T15:27:18;2.00;;;1.20;;
20721;SDS011;10522;52.198;9.890;2023-05-19T15:29:46;1.27;;;1.07;;